sensor_id;sensor_type;location;lat;lon;timestamp;temperature;humidity
36002;DHT22;22070;50.922;5.430;2022-11-28T00:01:59;9.70;99.90
36002;DHT22;22070;50.922;5.430;2022-11-28T00:04:24;9.60;99.90
36002;DHT22;22070;50.922;5.430;2022-11-28T00:06:50;9.60;99.90
36002;DHT22;22070;50.922;5.430;2022-11-28T00:09:19;9.60;99.90
36002;DHT22;22070;50.922;5.430;2022-11-28T00:11:47;9.70;99.90
36002;DHT22;22070;50.922;5.430;2022-11-28T00:14:13;9.70;99.90
36002;DHT22;22070;50.922;5.430;2022-11-28T00:16:39;9.70;99.90
36002;DHT22;22070;50.922;5.430;2022-11-28T00:19:06;9.70;99.90
36002;DHT22;22070;50.922;5.430;2022-11-28T00:21:32;9.60;99.90
36002;DHT22;22070;50.922;5.430;2022-11-28T00:23:58;9.60;99.90
36002;DHT22;22070;50.922;5.430;2022-11-28T00:26:30;9.70;99.90
36002;DHT22;22070;50.922;5.430;2022-11-28T00:28:57;9.70;99.90
36002;DHT22;22070;50.922;5.430;2022-11-28T00:31:26;9.70;99.90
36002;DHT22;22070;50.922;5.430;2022-11-28T00:33:52;9.80;99.90
36002;DHT22;22070;50.922;5.430;2022-11-28T00:36:19;9.70;99.90
36002;DHT22;22070;50.922;5.430;2022-11-28T00:38:45;9.80;99.90
36002;DHT22;22070;50.922;5.430;2022-11-28T00:41:16;9.70;99.90
36002;DHT22;22070;50.922;5.430;2022-11-28T00:43:43;9.80;99.90
36002;DHT22;22070;50.922;5.430;2022-11-28T00:46:09;9.90;99.90
36002;DHT22;22070;50.922;5.430;2022-11-28T00:48:35;9.90;99.90
36002;DHT22;22070;50.922;5.430;2022-11-28T00:51:10;9.80;99.90
36002;DHT22;22070;50.922;5.430;2022-11-28T00:53:36;9.70;99.90
36002;DHT22;22070;50.922;5.430;2022-11-28T00:56:04;9.80;99.90
36002;DHT22;22070;50.922;5.430;2022-11-28T00:58:31;9.90;99.90
36002;DHT22;22070;50.922;5.430;2022-11-28T01:00:57;9.80;99.90
36002;DHT22;22070;50.922;5.430;2022-11-28T01:03:22;9.80;99.90
36002;DHT22;22070;50.922;5.430;2022-11-28T01:05:48;9.90;99.90
36002;DHT22;22070;50.922;5.430;2022-11-28T01:08:14;9.80;99.90
36002;DHT22;22070;50.922;5.430;2022-11-28T01:10:40;9.70;99.90
36002;DHT22;22070;50.922;5.430;2022-11-28T01:13:07;9.70;99.90
36002;DHT22;22070;50.922;5.430;2022-11-28T01:15:32;9.70;99.90
36002;DHT22;22070;50.922;5.430;2022-11-28T01:17:58;9.70;99.90
36002;DHT22;22070;50.922;5.430;2022-11-28T01:20:24;9.60;99.90
36002;DHT22;22070;50.922;5.430;2022-11-28T01:22:49;9.60;99.90
36002;DHT22;22070;50.922;5.430;2022-11-28T01:25:15;9.60;99.90
36002;DHT22;22070;50.922;5.430;2022-11-28T01:27:41;9.50;99.90
36002;DHT22;22070;50.922;5.430;2022-11-28T01:30:07;9.50;99.90
36002;DHT22;22070;50.922;5.430;2022-11-28T01:32:32;9.40;99.90
36002;DHT22;22070;50.922;5.430;2022-11-28T01:34:58;9.40;99.90
36002;DHT22;22070;50.922;5.430;2022-11-28T01:37:24;9.30;99.90
36002;DHT22;22070;50.922;5.430;2022-11-28T01:39:49;9.40;99.90
36002;DHT22;22070;50.922;5.430;2022-11-28T01:42:18;9.30;99.90
36002;DHT22;22070;50.922;5.430;2022-11-28T01:47:14;9.30;99.90
36002;DHT22;22070;50.922;5.430;2022-11-28T01:49:41;9.30;99.90
36002;DHT22;22070;50.922;5.430;2022-11-28T01:52:10;9.30;99.90
36002;DHT22;22070;50.922;5.430;2022-11-28T01:54:38;9.30;99.90
36002;DHT22;22070;50.922;5.430;2022-11-28T01:57:08;9.20;99.90
36002;DHT22;22070;50.922;5.430;2022-11-28T01:59:39;9.20;99.90
36002;DHT22;22070;50.922;5.430;2022-11-28T02:02:08;9.20;99.90
36002;DHT22;22070;50.922;5.430;2022-11-28T02:04:37;9.10;99.90
36002;DHT22;22070;50.922;5.430;2022-11-28T02:07:03;9.10;99.90
36002;DHT22;22070;50.922;5.430;2022-11-28T02:09:29;9.10;99.90
36002;DHT22;22070;50.922;5.430;2022-11-28T02:12:05;9.10;99.90
36002;DHT22;22070;50.922;5.430;2022-11-28T02:17:13;9.10;99.90
36002;DHT22;22070;50.922;5.430;2022-11-28T02:33:31;9.00;99.90
36002;DHT22;22070;50.922;5.430;2022-11-28T02:36:32;9.00;99.90
36002;DHT22;22070;50.922;5.430;2022-11-28T02:39:26;8.90;99.90
36002;DHT22;22070;50.922;5.430;2022-11-28T02:42:01;8.90;99.90
36002;DHT22;22070;50.922;5.430;2022-11-28T02:44:41;8.90;99.90
36002;DHT22;22070;50.922;5.430;2022-11-28T02:47:16;8.90;99.90
36002;DHT22;22070;50.922;5.430;2022-11-28T02:49:57;8.90;99.90
36002;DHT22;22070;50.922;5.430;2022-11-28T02:52:58;9.00;99.90
36002;DHT22;22070;50.922;5.430;2022-11-28T02:55:28;8.90;99.90
36002;DHT22;22070;50.922;5.430;2022-11-28T02:57:54;8.90;99.90
36002;DHT22;22070;50.922;5.430;2022-11-28T03:00:24;8.90;99.90
36002;DHT22;22070;50.922;5.430;2022-11-28T03:08:16;8.90;99.90
36002;DHT22;22070;50.922;5.430;2022-11-28T03:11:12;8.90;99.90
36002;DHT22;22070;50.922;5.430;2022-11-28T03:16:45;9.00;99.90
36002;DHT22;22070;50.922;5.430;2022-11-28T03:19:29;8.90;99.90
36002;DHT22;22070;50.922;5.430;2022-11-28T03:22:10;8.90;99.90
36002;DHT22;22070;50.922;5.430;2022-11-28T03:24:45;8.90;99.90
36002;DHT22;22070;50.922;5.430;2022-11-28T03:27:16;9.00;99.90
36002;DHT22;22070;50.922;5.430;2022-11-28T03:29:45;8.90;99.90
36002;DHT22;22070;50.922;5.430;2022-11-28T03:32:27;9.00;99.90
36002;DHT22;22070;50.922;5.430;2022-11-28T03:35:04;9.00;99.90
36002;DHT22;22070;50.922;5.430;2022-11-28T03:37:33;8.90;99.90
36002;DHT22;22070;50.922;5.430;2022-11-28T03:40:07;8.90;99.90
36002;DHT22;22070;50.922;5.430;2022-11-28T03:42:41;8.90;99.90
36002;DHT22;22070;50.922;5.430;2022-11-28T03:45:19;9.00;99.90
36002;DHT22;22070;50.922;5.430;2022-11-28T03:47:47;9.00;99.90
36002;DHT22;22070;50.922;5.430;2022-11-28T03:50:18;9.00;99.90
36002;DHT22;22070;50.922;5.430;2022-11-28T03:52:50;8.90;99.90
36002;DHT22;22070;50.922;5.430;2022-11-28T03:55:21;8.80;99.90
36002;DHT22;22070;50.922;5.430;2022-11-28T03:57:57;8.80;99.90
36002;DHT22;22070;50.922;5.430;2022-11-28T04:00:24;8.80;99.90
36002;DHT22;22070;50.922;5.430;2022-11-28T04:05:44;8.70;99.90
36002;DHT22;22070;50.922;5.430;2022-11-28T04:08:28;8.70;99.90
36002;DHT22;22070;50.922;5.430;2022-11-28T04:11:06;8.70;99.90
36002;DHT22;22070;50.922;5.430;2022-11-28T04:13:41;8.70;99.90
36002;DHT22;22070;50.922;5.430;2022-11-28T04:16:10;8.70;99.90
36002;DHT22;22070;50.922;5.430;2022-11-28T04:22:30;8.60;99.90
36002;DHT22;22070;50.922;5.430;2022-11-28T04:25:04;8.60;99.90
36002;DHT22;22070;50.922;5.430;2022-11-28T04:27:41;8.60;99.90
36002;DHT22;22070;50.922;5.430;2022-11-28T04:30:10;8.60;99.90
36002;DHT22;22070;50.922;5.430;2022-11-28T04:32:39;8.70;99.90
36002;DHT22;22070;50.922;5.430;2022-11-28T04:35:15;8.60;99.90
36002;DHT22;22070;50.922;5.430;2022-11-28T04:37:43;8.50;99.90
36002;DHT22;22070;50.922;5.430;2022-11-28T04:40:13;8.50;99.90
36002;DHT22;22070;50.922;5.430;2022-11-28T04:42:56;8.60;99.90
36002;DHT22;22070;50.922;5.430;2022-11-28T04:47:53;8.70;99.90
36002;DHT22;22070;50.922;5.430;2022-11-28T04:50:22;8.80;99.90
36002;DHT22;22070;50.922;5.430;2022-11-28T04:53:07;8.80;99.90
36002;DHT22;22070;50.922;5.430;2022-11-28T04:58:13;8.70;99.90
36002;DHT22;22070;50.922;5.430;2022-11-28T05:00:41;8.70;99.90
36002;DHT22;22070;50.922;5.430;2022-11-28T05:03:08;8.70;99.90
36002;DHT22;22070;50.922;5.430;2022-11-28T05:05:42;8.60;99.90
36002;DHT22;22070;50.922;5.430;2022-11-28T05:08:08;8.60;99.90
36002;DHT22;22070;50.922;5.430;2022-11-28T05:10:34;8.60;99.90
36002;DHT22;22070;50.922;5.430;2022-11-28T05:13:00;8.60;99.90
36002;DHT22;22070;50.922;5.430;2022-11-28T05:15:25;8.60;99.90
36002;DHT22;22070;50.922;5.430;2022-11-28T05:17:51;8.60;99.90
36002;DHT22;22070;50.922;5.430;2022-11-28T05:20:16;8.60;99.90
36002;DHT22;22070;50.922;5.430;2022-11-28T05:22:42;8.60;99.90
36002;DHT22;22070;50.922;5.430;2022-11-28T05:25:08;8.60;99.90
36002;DHT22;22070;50.922;5.430;2022-11-28T05:27:33;8.60;99.90
36002;DHT22;22070;50.922;5.430;2022-11-28T05:29:59;8.70;99.90
36002;DHT22;22070;50.922;5.430;2022-11-28T05:32:27;8.70;99.90
36002;DHT22;22070;50.922;5.430;2022-11-28T05:34:53;8.70;99.90
36002;DHT22;22070;50.922;5.430;2022-11-28T05:37:18;8.80;99.90
36002;DHT22;22070;50.922;5.430;2022-11-28T05:39:44;8.80;99.90
36002;DHT22;22070;50.922;5.430;2022-11-28T05:42:09;8.80;99.90
36002;DHT22;22070;50.922;5.430;2022-11-28T05:44:35;8.80;99.90
36002;DHT22;22070;50.922;5.430;2022-11-28T05:47:02;8.80;99.90
36002;DHT22;22070;50.922;5.430;2022-11-28T05:49:27;8.80;99.90
36002;DHT22;22070;50.922;5.430;2022-11-28T05:51:54;8.80;99.90
36002;DHT22;22070;50.922;5.430;2022-11-28T05:54:19;8.80;99.90
36002;DHT22;22070;50.922;5.430;2022-11-28T05:56:45;8.70;99.90
36002;DHT22;22070;50.922;5.430;2022-11-28T05:59:11;8.90;99.90
36002;DHT22;22070;50.922;5.430;2022-11-28T06:01:37;8.90;99.90
36002;DHT22;22070;50.922;5.430;2022-11-28T06:04:03;8.90;99.90
36002;DHT22;22070;50.922;5.430;2022-11-28T06:06:32;8.90;99.90
36002;DHT22;22070;50.922;5.430;2022-11-28T06:08:58;8.90;99.90
36002;DHT22;22070;50.922;5.430;2022-11-28T06:11:26;8.80;99.90
36002;DHT22;22070;50.922;5.430;2022-11-28T06:13:52;8.90;99.90
36002;DHT22;22070;50.922;5.430;2022-11-28T06:16:23;8.90;99.90
36002;DHT22;22070;50.922;5.430;2022-11-28T06:18:58;9.00;99.90
36002;DHT22;22070;50.922;5.430;2022-11-28T06:21:25;9.10;99.90
36002;DHT22;22070;50.922;5.430;2022-11-28T06:23:51;9.10;99.90
36002;DHT22;22070;50.922;5.430;2022-11-28T06:26:20;9.00;99.90
36002;DHT22;22070;50.922;5.430;2022-11-28T06:28:47;9.00;99.90
36002;DHT22;22070;50.922;5.430;2022-11-28T06:31:18;9.00;99.90
36002;DHT22;22070;50.922;5.430;2022-11-28T06:33:44;8.90;99.90
36002;DHT22;22070;50.922;5.430;2022-11-28T06:36:11;8.90;99.90
36002;DHT22;22070;50.922;5.430;2022-11-28T06:38:37;8.90;99.90
36002;DHT22;22070;50.922;5.430;2022-11-28T06:41:05;9.00;99.90
36002;DHT22;22070;50.922;5.430;2022-11-28T06:43:32;9.00;99.90
36002;DHT22;22070;50.922;5.430;2022-11-28T06:45:58;9.00;99.90
36002;DHT22;22070;50.922;5.430;2022-11-28T06:48:23;8.90;99.90
36002;DHT22;22070;50.922;5.430;2022-11-28T06:50:50;8.90;99.90
36002;DHT22;22070;50.922;5.430;2022-11-28T06:53:15;8.90;99.90
36002;DHT22;22070;50.922;5.430;2022-11-28T06:55:41;8.80;99.90
36002;DHT22;22070;50.922;5.430;2022-11-28T06:58:07;8.90;99.90
36002;DHT22;22070;50.922;5.430;2022-11-28T07:00:33;8.80;99.90
36002;DHT22;22070;50.922;5.430;2022-11-28T07:02:59;8.80;99.90
36002;DHT22;22070;50.922;5.430;2022-11-28T07:05:25;8.80;99.90
36002;DHT22;22070;50.922;5.430;2022-11-28T07:07:56;8.90;99.90
36002;DHT22;22070;50.922;5.430;2022-11-28T07:10:22;9.00;99.90
36002;DHT22;22070;50.922;5.430;2022-11-28T07:12:56;9.00;99.90
36002;DHT22;22070;50.922;5.430;2022-11-28T07:15:23;9.00;99.90
36002;DHT22;22070;50.922;5.430;2022-11-28T07:17:48;9.00;99.90
36002;DHT22;22070;50.922;5.430;2022-11-28T07:20:15;8.80;99.90
36002;DHT22;22070;50.922;5.430;2022-11-28T07:22:40;8.90;99.90
36002;DHT22;22070;50.922;5.430;2022-11-28T07:25:08;8.90;99.90
36002;DHT22;22070;50.922;5.430;2022-11-28T07:27:34;8.90;99.90
36002;DHT22;22070;50.922;5.430;2022-11-28T07:30:00;9.00;99.90
36002;DHT22;22070;50.922;5.430;2022-11-28T07:32:25;9.00;99.90
36002;DHT22;22070;50.922;5.430;2022-11-28T07:34:51;9.00;99.90
36002;DHT22;22070;50.922;5.430;2022-11-28T07:37:16;9.00;99.90
36002;DHT22;22070;50.922;5.430;2022-11-28T07:39:42;9.00;99.90
36002;DHT22;22070;50.922;5.430;2022-11-28T07:42:09;9.00;99.90
36002;DHT22;22070;50.922;5.430;2022-11-28T07:44:35;9.00;99.90
36002;DHT22;22070;50.922;5.430;2022-11-28T07:47:01;9.10;99.90
36002;DHT22;22070;50.922;5.430;2022-11-28T07:49:27;9.10;99.90
36002;DHT22;22070;50.922;5.430;2022-11-28T07:51:52;9.20;99.90
36002;DHT22;22070;50.922;5.430;2022-11-28T07:54:18;9.00;99.90
36002;DHT22;22070;50.922;5.430;2022-11-28T07:56:43;9.10;99.90
36002;DHT22;22070;50.922;5.430;2022-11-28T07:59:09;9.20;99.90
36002;DHT22;22070;50.922;5.430;2022-11-28T08:01:35;9.10;99.90
36002;DHT22;22070;50.922;5.430;2022-11-28T08:04:03;9.10;99.90
36002;DHT22;22070;50.922;5.430;2022-11-28T08:06:30;9.10;99.90
36002;DHT22;22070;50.922;5.430;2022-11-28T08:08:58;9.10;99.90
36002;DHT22;22070;50.922;5.430;2022-11-28T08:11:24;9.00;99.90
36002;DHT22;22070;50.922;5.430;2022-11-28T08:13:52;9.20;99.90
36002;DHT22;22070;50.922;5.430;2022-11-28T08:16:20;9.10;99.90
36002;DHT22;22070;50.922;5.430;2022-11-28T08:18:47;9.20;99.90
36002;DHT22;22070;50.922;5.430;2022-11-28T08:21:18;9.20;99.90
36002;DHT22;22070;50.922;5.430;2022-11-28T08:23:44;9.20;99.90
36002;DHT22;22070;50.922;5.430;2022-11-28T08:26:12;9.30;99.90
36002;DHT22;22070;50.922;5.430;2022-11-28T08:28:39;9.10;99.90
36002;DHT22;22070;50.922;5.430;2022-11-28T08:31:13;9.20;99.90
36002;DHT22;22070;50.922;5.430;2022-11-28T08:33:39;9.30;99.90
36002;DHT22;22070;50.922;5.430;2022-11-28T08:36:06;9.30;99.90
36002;DHT22;22070;50.922;5.430;2022-11-28T08:38:32;9.30;99.90
36002;DHT22;22070;50.922;5.430;2022-11-28T08:41:03;9.40;99.90
36002;DHT22;22070;50.922;5.430;2022-11-28T08:43:29;9.40;99.90
36002;DHT22;22070;50.922;5.430;2022-11-28T08:45:54;9.40;99.90
36002;DHT22;22070;50.922;5.430;2022-11-28T08:48:20;9.40;99.90
36002;DHT22;22070;50.922;5.430;2022-11-28T08:50:46;9.50;99.90
36002;DHT22;22070;50.922;5.430;2022-11-28T08:53:12;9.50;99.90
36002;DHT22;22070;50.922;5.430;2022-11-28T08:55:40;9.50;99.90
36002;DHT22;22070;50.922;5.430;2022-11-28T08:58:06;9.50;99.90
36002;DHT22;22070;50.922;5.430;2022-11-28T09:00:32;9.40;99.90
36002;DHT22;22070;50.922;5.430;2022-11-28T09:02:58;9.40;99.90
36002;DHT22;22070;50.922;5.430;2022-11-28T09:05:23;9.50;99.90
36002;DHT22;22070;50.922;5.430;2022-11-28T09:07:49;9.50;99.90
36002;DHT22;22070;50.922;5.430;2022-11-28T09:10:15;9.60;99.90
36002;DHT22;22070;50.922;5.430;2022-11-28T09:12:40;9.70;99.90
36002;DHT22;22070;50.922;5.430;2022-11-28T09:15:06;9.70;99.90
36002;DHT22;22070;50.922;5.430;2022-11-28T09:17:32;9.60;99.90
36002;DHT22;22070;50.922;5.430;2022-11-28T09:19:58;9.60;99.90
36002;DHT22;22070;50.922;5.430;2022-11-28T09:22:23;9.70;99.90
36002;DHT22;22070;50.922;5.430;2022-11-28T09:24:49;9.80;99.90
36002;DHT22;22070;50.922;5.430;2022-11-28T09:27:14;9.80;99.90
36002;DHT22;22070;50.922;5.430;2022-11-28T09:29:40;9.80;99.90
36002;DHT22;22070;50.922;5.430;2022-11-28T09:32:05;9.90;99.90
36002;DHT22;22070;50.922;5.430;2022-11-28T09:34:31;9.70;99.90
36002;DHT22;22070;50.922;5.430;2022-11-28T09:36:57;9.70;99.90
36002;DHT22;22070;50.922;5.430;2022-11-28T09:39:23;9.80;99.90
36002;DHT22;22070;50.922;5.430;2022-11-28T09:41:51;9.70;99.90
36002;DHT22;22070;50.922;5.430;2022-11-28T09:44:39;9.80;99.90
36002;DHT22;22070;50.922;5.430;2022-11-28T09:47:17;9.90;99.90
36002;DHT22;22070;50.922;5.430;2022-11-28T09:49:54;10.00;99.90
36002;DHT22;22070;50.922;5.430;2022-11-28T09:57:50;9.90;99.90
36002;DHT22;22070;50.922;5.430;2022-11-28T10:00:34;10.00;99.90
36002;DHT22;22070;50.922;5.430;2022-11-28T10:03:16;10.10;99.90
36002;DHT22;22070;50.922;5.430;2022-11-28T10:06:08;10.10;99.90
36002;DHT22;22070;50.922;5.430;2022-11-28T10:08:51;10.20;99.90
36002;DHT22;22070;50.922;5.430;2022-11-28T10:11:43;10.20;99.90
36002;DHT22;22070;50.922;5.430;2022-11-28T10:19:10;10.20;99.90
36002;DHT22;22070;50.922;5.430;2022-11-28T10:21:43;10.20;99.90
36002;DHT22;22070;50.922;5.430;2022-11-28T10:24:18;10.20;99.90
36002;DHT22;22070;50.922;5.430;2022-11-28T10:26:54;10.20;99.90
36002;DHT22;22070;50.922;5.430;2022-11-28T10:29:52;10.20;99.90
36002;DHT22;22070;50.922;5.430;2022-11-28T10:32:26;10.10;99.90
36002;DHT22;22070;50.922;5.430;2022-11-28T10:37:39;10.20;99.90
36002;DHT22;22070;50.922;5.430;2022-11-28T10:45:50;10.20;99.90
36002;DHT22;22070;50.922;5.430;2022-11-28T11:01:46;10.30;99.90
36002;DHT22;22070;50.922;5.430;2022-11-28T11:04:18;10.40;99.90
36002;DHT22;22070;50.922;5.430;2022-11-28T11:07:38;10.40;99.90
36002;DHT22;22070;50.922;5.430;2022-11-28T11:09:38;10.50;99.90
36002;DHT22;22070;50.922;5.430;2022-11-28T11:12:06;10.50;99.90
36002;DHT22;22070;50.922;5.430;2022-11-28T11:14:38;10.50;99.90
36002;DHT22;22070;50.922;5.430;2022-11-28T11:17:33;10.60;99.90
36002;DHT22;22070;50.922;5.430;2022-11-28T11:19:59;10.70;99.90
36002;DHT22;22070;50.922;5.430;2022-11-28T11:22:27;10.70;99.90
36002;DHT22;22070;50.922;5.430;2022-11-28T11:25:16;10.70;99.90
36002;DHT22;22070;50.922;5.430;2022-11-28T11:27:51;10.90;99.90
36002;DHT22;22070;50.922;5.430;2022-11-28T11:30:29;11.00;99.90
36002;DHT22;22070;50.922;5.430;2022-11-28T11:32:56;11.00;99.90
36002;DHT22;22070;50.922;5.430;2022-11-28T11:35:33;11.00;99.90
36002;DHT22;22070;50.922;5.430;2022-11-28T11:40:44;11.00;99.90
36002;DHT22;22070;50.922;5.430;2022-11-28T11:43:27;11.00;99.90
36002;DHT22;22070;50.922;5.430;2022-11-28T11:46:14;11.10;99.90
36002;DHT22;22070;50.922;5.430;2022-11-28T11:48:45;11.10;99.90
36002;DHT22;22070;50.922;5.430;2022-11-28T11:53:46;11.20;99.90
36002;DHT22;22070;50.922;5.430;2022-11-28T11:56:12;11.20;99.90
36002;DHT22;22070;50.922;5.430;2022-11-28T11:58:50;11.20;99.90
36002;DHT22;22070;50.922;5.430;2022-11-28T12:01:19;11.30;99.90
36002;DHT22;22070;50.922;5.430;2022-11-28T12:03:54;11.40;99.90
36002;DHT22;22070;50.922;5.430;2022-11-28T12:06:24;11.50;99.90
36002;DHT22;22070;50.922;5.430;2022-11-28T12:08:59;11.50;99.90
36002;DHT22;22070;50.922;5.430;2022-11-28T12:11:40;11.40;99.90
36002;DHT22;22070;50.922;5.430;2022-11-28T12:14:24;11.40;99.90
36002;DHT22;22070;50.922;5.430;2022-11-28T12:19:54;11.30;99.90
36002;DHT22;22070;50.922;5.430;2022-11-28T12:22:29;11.30;99.90
36002;DHT22;22070;50.922;5.430;2022-11-28T12:25:35;11.40;99.90
36002;DHT22;22070;50.922;5.430;2022-11-28T12:28:14;11.40;99.90
36002;DHT22;22070;50.922;5.430;2022-11-28T12:33:56;11.50;99.90
36002;DHT22;22070;50.922;5.430;2022-11-28T12:47:15;11.60;99.90
36002;DHT22;22070;50.922;5.430;2022-11-28T12:55:59;11.50;99.90
36002;DHT22;22070;50.922;5.430;2022-11-28T12:58:35;11.60;99.90
36002;DHT22;22070;50.922;5.430;2022-11-28T13:09:36;11.60;99.90
36002;DHT22;22070;50.922;5.430;2022-11-28T13:12:35;11.60;99.90
36002;DHT22;22070;50.922;5.430;2022-11-28T13:24:01;11.60;99.90
36002;DHT22;22070;50.922;5.430;2022-11-28T13:34:19;11.80;99.90
36002;DHT22;22070;50.922;5.430;2022-11-28T13:37:06;11.70;99.90
36002;DHT22;22070;50.922;5.430;2022-11-28T13:39:46;11.70;99.90
36002;DHT22;22070;50.922;5.430;2022-11-28T13:44:59;11.70;99.90
36002;DHT22;22070;50.922;5.430;2022-11-28T13:47:28;11.70;99.90
36002;DHT22;22070;50.922;5.430;2022-11-28T13:50:32;11.60;99.90
36002;DHT22;22070;50.922;5.430;2022-11-28T13:53:00;11.70;99.90
36002;DHT22;22070;50.922;5.430;2022-11-28T13:55:37;11.70;99.90
36002;DHT22;22070;50.922;5.430;2022-11-28T13:58:30;11.70;99.90
36002;DHT22;22070;50.922;5.430;2022-11-28T14:03:31;11.70;99.90
36002;DHT22;22070;50.922;5.430;2022-11-28T14:06:01;11.70;99.90
36002;DHT22;22070;50.922;5.430;2022-11-28T14:08:38;11.70;99.90
36002;DHT22;22070;50.922;5.430;2022-11-28T14:14:06;11.90;99.90
36002;DHT22;22070;50.922;5.430;2022-11-28T14:16:50;11.80;99.90
36002;DHT22;22070;50.922;5.430;2022-11-28T14:19:37;11.70;99.90
36002;DHT22;22070;50.922;5.430;2022-11-28T14:27:24;11.60;99.90
36002;DHT22;22070;50.922;5.430;2022-11-28T14:29:52;11.70;99.90
36002;DHT22;22070;50.922;5.430;2022-11-28T14:32:39;11.70;99.90
36002;DHT22;22070;50.922;5.430;2022-11-28T14:35:15;11.70;99.90
36002;DHT22;22070;50.922;5.430;2022-11-28T14:37:54;11.60;99.90
36002;DHT22;22070;50.922;5.430;2022-11-28T14:43:28;11.40;99.90
36002;DHT22;22070;50.922;5.430;2022-11-28T14:46:23;11.40;99.90
36002;DHT22;22070;50.922;5.430;2022-11-28T14:54:29;11.30;99.90
36002;DHT22;22070;50.922;5.430;2022-11-28T14:56:57;11.30;99.90
36002;DHT22;22070;50.922;5.430;2022-11-28T14:59:28;11.20;99.90
36002;DHT22;22070;50.922;5.430;2022-11-28T15:07:53;11.30;99.90
36002;DHT22;22070;50.922;5.430;2022-11-28T15:15:27;11.10;99.90
36002;DHT22;22070;50.922;5.430;2022-11-28T15:17:53;11.00;99.90
36002;DHT22;22070;50.922;5.430;2022-11-28T15:20:27;10.90;99.90
36002;DHT22;22070;50.922;5.430;2022-11-28T15:22:54;11.00;99.90
36002;DHT22;22070;50.922;5.430;2022-11-28T15:25:25;10.90;99.90
36002;DHT22;22070;50.922;5.430;2022-11-28T15:27:52;10.90;99.90
36002;DHT22;22070;50.922;5.430;2022-11-28T15:30:22;10.90;99.90
36002;DHT22;22070;50.922;5.430;2022-11-28T15:33:00;10.90;99.90
36002;DHT22;22070;50.922;5.430;2022-11-28T15:35:26;10.90;99.90
36002;DHT22;22070;50.922;5.430;2022-11-28T15:37:54;10.90;99.90
36002;DHT22;22070;50.922;5.430;2022-11-28T15:42:54;10.80;99.90
36002;DHT22;22070;50.922;5.430;2022-11-28T15:45:28;10.70;99.90
36002;DHT22;22070;50.922;5.430;2022-11-28T15:47:55;10.70;99.90
36002;DHT22;22070;50.922;5.430;2022-11-28T15:50:22;10.60;99.90
36002;DHT22;22070;50.922;5.430;2022-11-28T15:52:55;10.60;99.90
36002;DHT22;22070;50.922;5.430;2022-11-28T15:55:22;10.60;99.90
36002;DHT22;22070;50.922;5.430;2022-11-28T15:57:48;10.50;99.90
36002;DHT22;22070;50.922;5.430;2022-11-28T16:00:15;10.60;99.90
36002;DHT22;22070;50.922;5.430;2022-11-28T16:02:42;10.50;99.90
36002;DHT22;22070;50.922;5.430;2022-11-28T16:05:17;10.50;99.90
36002;DHT22;22070;50.922;5.430;2022-11-28T16:07:46;10.60;99.90
36002;DHT22;22070;50.922;5.430;2022-11-28T16:12:45;10.50;99.90
36002;DHT22;22070;50.922;5.430;2022-11-28T16:15:19;10.40;99.90
36002;DHT22;22070;50.922;5.430;2022-11-28T16:17:47;10.40;99.90
36002;DHT22;22070;50.922;5.430;2022-11-28T16:20:20;10.40;99.90
36002;DHT22;22070;50.922;5.430;2022-11-28T16:22:46;10.40;99.90
36002;DHT22;22070;50.922;5.430;2022-11-28T16:25:19;10.40;99.90
36002;DHT22;22070;50.922;5.430;2022-11-28T16:27:45;10.40;99.90
36002;DHT22;22070;50.922;5.430;2022-11-28T16:32:52;10.40;99.90
36002;DHT22;22070;50.922;5.430;2022-11-28T16:37:52;10.40;99.90
36002;DHT22;22070;50.922;5.430;2022-11-28T16:40:22;10.30;99.90
36002;DHT22;22070;50.922;5.430;2022-11-28T16:42:55;10.30;99.90
36002;DHT22;22070;50.922;5.430;2022-11-28T16:45:25;10.30;99.90
36002;DHT22;22070;50.922;5.430;2022-11-28T16:48:08;10.20;99.90
36002;DHT22;22070;50.922;5.430;2022-11-28T16:50:36;10.20;99.90
36002;DHT22;22070;50.922;5.430;2022-11-28T16:53:02;10.20;99.90
36002;DHT22;22070;50.922;5.430;2022-11-28T17:00:24;10.20;99.90
36002;DHT22;22070;50.922;5.430;2022-11-28T17:02:50;10.20;99.90
36002;DHT22;22070;50.922;5.430;2022-11-28T17:05:17;10.20;99.90
36002;DHT22;22070;50.922;5.430;2022-11-28T17:07:42;10.20;99.90
36002;DHT22;22070;50.922;5.430;2022-11-28T17:10:11;10.20;99.90
36002;DHT22;22070;50.922;5.430;2022-11-28T17:12:37;10.10;99.90
36002;DHT22;22070;50.922;5.430;2022-11-28T17:15:04;10.10;99.90
36002;DHT22;22070;50.922;5.430;2022-11-28T17:17:33;10.10;99.90
36002;DHT22;22070;50.922;5.430;2022-11-28T17:19:59;10.00;99.90
36002;DHT22;22070;50.922;5.430;2022-11-28T17:22:34;10.00;99.90
36002;DHT22;22070;50.922;5.430;2022-11-28T17:25:01;10.00;99.90
36002;DHT22;22070;50.922;5.430;2022-11-28T17:27:27;9.90;99.90
36002;DHT22;22070;50.922;5.430;2022-11-28T17:29:53;9.90;99.90
36002;DHT22;22070;50.922;5.430;2022-11-28T17:32:19;9.90;99.90
36002;DHT22;22070;50.922;5.430;2022-11-28T17:34:44;9.90;99.90
36002;DHT22;22070;50.922;5.430;2022-11-28T17:37:10;9.90;99.90
36002;DHT22;22070;50.922;5.430;2022-11-28T17:39:36;9.80;99.90
36002;DHT22;22070;50.922;5.430;2022-11-28T17:42:02;9.80;99.90
36002;DHT22;22070;50.922;5.430;2022-11-28T17:44:30;9.80;99.90
36002;DHT22;22070;50.922;5.430;2022-11-28T17:46:57;9.90;99.90
36002;DHT22;22070;50.922;5.430;2022-11-28T17:49:23;9.90;99.90
36002;DHT22;22070;50.922;5.430;2022-11-28T17:51:50;9.80;99.90
36002;DHT22;22070;50.922;5.430;2022-11-28T17:54:19;9.80;99.90
36002;DHT22;22070;50.922;5.430;2022-11-28T17:56:46;9.70;99.90
36002;DHT22;22070;50.922;5.430;2022-11-28T17:59:13;9.70;99.90
36002;DHT22;22070;50.922;5.430;2022-11-28T18:01:40;9.60;99.90
36002;DHT22;22070;50.922;5.430;2022-11-28T18:04:05;9.60;99.90
36002;DHT22;22070;50.922;5.430;2022-11-28T18:06:31;9.60;99.90
36002;DHT22;22070;50.922;5.430;2022-11-28T18:08:58;9.60;99.90
36002;DHT22;22070;50.922;5.430;2022-11-28T18:11:26;9.60;99.90
36002;DHT22;22070;50.922;5.430;2022-11-28T18:13:52;9.50;99.90
36002;DHT22;22070;50.922;5.430;2022-11-28T18:16:20;9.50;99.90
36002;DHT22;22070;50.922;5.430;2022-11-28T18:18:47;9.50;99.90
36002;DHT22;22070;50.922;5.430;2022-11-28T18:21:12;9.50;99.90
36002;DHT22;22070;50.922;5.430;2022-11-28T18:23:43;9.50;99.90
36002;DHT22;22070;50.922;5.430;2022-11-28T18:26:14;9.50;99.90
36002;DHT22;22070;50.922;5.430;2022-11-28T18:28:41;9.40;99.90
36002;DHT22;22070;50.922;5.430;2022-11-28T18:31:08;9.40;99.90
36002;DHT22;22070;50.922;5.430;2022-11-28T18:33:34;9.40;99.90
36002;DHT22;22070;50.922;5.430;2022-11-28T18:36:20;9.40;99.90
36002;DHT22;22070;50.922;5.430;2022-11-28T18:38:46;9.40;99.90
36002;DHT22;22070;50.922;5.430;2022-11-28T18:41:14;9.40;99.90
36002;DHT22;22070;50.922;5.430;2022-11-28T18:43:40;9.30;99.90
36002;DHT22;22070;50.922;5.430;2022-11-28T18:46:14;9.40;99.90
36002;DHT22;22070;50.922;5.430;2022-11-28T18:48:43;9.30;99.90
36002;DHT22;22070;50.922;5.430;2022-11-28T18:51:19;9.30;99.90
36002;DHT22;22070;50.922;5.430;2022-11-28T18:53:45;9.30;99.90